Weather reports worldwide

Advertisment
Siracusa, Italy (16464): temperature & dewpoint: 30.06.2020 06:00:00 - 06.07.2020 06:00:00 (CEST)Siracusa, Italy (16464): wind speed: 30.06.2020 06:00:00 - 06.07.2020 06:00:00 (CEST)Siracusa, Italy (16464): wind direction: 30.06.2020 06:00:00 - 06.07.2020 06:00:00 (CEST)Siracusa, Italy (16464): reduced air pressure: 30.06.2020 06:00:00 - 06.07.2020 06:00:00 (CEST)Siracusa, Italy (16464): precipitation: 30.06.2020 06:00:00 - 06.07.2020 06:00:00 (CEST)
Date & Time tt [°C] td [°C] ff [km/h] ff [kn] dd ppp [hPa] rr [mm]
06.07.2020 06:00:00 21,2 15,4 2 1 SSW 1008,6 -
06.07.2020 05:00:00 23,9 19,8 8 4 SW 1008,7 -
06.07.2020 04:00:00 24,2 19,4 15 8 WSW 1009,3 -
06.07.2020 03:00:00 24,6 18,7 8 4 SSW 1009,8 -
06.07.2020 02:00:00 24,6 18,7 13 7 SSW 1010,4 0,0
06.07.2020 01:00:00 24,1 17,5 4 2 SSW 1011,1 -
06.07.2020 00:00:00 25,1 18,9 2 1 SW 1011,2 -
05.07.2020 23:00:00 24,6 17,5 5 3 SSW 1011,0 -
05.07.2020 22:00:00 25,7 17,5 8 4 SW 1010,8 -
05.07.2020 21:00:00 25,8 17,9 5 3 W 1010,8 -
05.07.2020 20:00:00 26,1 18,2 9 5 W 1010,8 0,0
05.07.2020 19:00:00 26,4 18,2 8 4 W 1010,9 -
05.07.2020 18:00:00 27,0 18,5 9 5 W 1011,0 -
05.07.2020 17:00:00 27,0 17,7 9 5 W 1011,6 -
05.07.2020 16:00:00 27,6 16,5 8 4 W 1011,7 -
05.07.2020 15:00:00 27,8 16,7 9 5 W 1012,1 -
05.07.2020 14:00:00 26,9 18,9 9 5 SSW 1012,6 0,0
05.07.2020 13:00:00 26,8 18,6 4 2 W 1012,9 -
05.07.2020 12:00:00 26,3 19,1 9 5 W 1012,5 -
05.07.2020 11:00:00 26,4 18,7 13 7 W 1012,4 -
05.07.2020 10:00:00 26,1 19,2 15 8 W 1012,2 -
05.07.2020 09:00:00 26,2 18,0 11 6 SW 1012,3 -
05.07.2020 08:00:00 24,8 19,3 9 5 WNW 1012,3 0,0
05.07.2020 07:00:00 23,0 19,1 4 2 SW 1012,2 -
05.07.2020 06:00:00 22,7 19,0 4 2 SSW 1011,7 -
05.07.2020 05:00:00 22,3 18,0 5 3 SW 1011,7 -
05.07.2020 04:00:00 - - - - - - -
05.07.2020 03:00:00 23,4 18,9 11 6 WNW 1012,5 -
05.07.2020 02:00:00 24,7 19,5 13 7 WSW 1012,0 0,0
05.07.2020 01:00:00 25,3 18,9 22 12 W 1012,1 -
05.07.2020 00:00:00 26,2 18,8 15 8 WNW 1011,9 -
04.07.2020 23:00:00 25,8 17,9 18 10 WNW 1012,0 -
04.07.2020 22:00:00 26,0 17,3 16 9 WSW 1011,7 -
04.07.2020 21:00:00 25,2 19,3 24 13 SSW 1011,5 -
04.07.2020 20:00:00 27,0 22,1 15 8 SSW 1011,1 0,0
04.07.2020 19:00:00 27,8 19,3 15 8 SSW 1010,5 -
04.07.2020 18:00:00 29,1 19,9 26 14 WSW 1010,5 -
04.07.2020 17:00:00 29,2 21,4 21 11 W 1011,4 -
04.07.2020 16:00:00 29,7 20,8 22 12 W 1011,9 -
04.07.2020 15:00:00 30,1 20,6 13 7 WSW 1012,5 -
04.07.2020 14:00:00 28,6 20,8 9 5 W 1012,8 0,0
04.07.2020 13:00:00 29,0 20,7 11 6 W 1013,4 -
04.07.2020 12:00:00 29,2 21,4 9 5 W 1013,4 -
04.07.2020 11:00:00 27,9 21,6 15 8 WNW 1013,4 -
04.07.2020 10:00:00 27,6 21,8 16 9 WSW 1013,0 -
04.07.2020 09:00:00 26,9 21,1 24 13 WNW 1012,6 -
04.07.2020 08:00:00 26,1 21,0 22 12 SW 1012,2 0,0
04.07.2020 07:00:00 25,1 21,1 9 5 SW 1012,3 -
04.07.2020 06:00:00 24,7 21,0 5 3 W 1012,1 -
04.07.2020 05:00:00 25,1 20,7 11 6 SW 1011,5 -
04.07.2020 04:00:00 25,2 20,6 13 7 SW 1011,5 -
04.07.2020 03:00:00 25,3 21,7 8 4 W 1011,9 -
04.07.2020 02:00:00 25,5 21,9 8 4 WSW 1011,9 0,0
04.07.2020 01:00:00 25,8 21,6 15 8 SW 1011,8 -
04.07.2020 00:00:00 26,1 21,3 9 5 W 1012,1 -
03.07.2020 23:00:00 27,1 20,9 5 3 WSW 1012,0 -
03.07.2020 22:00:00 27,7 21,0 5 3 WNW 1011,6 -
03.07.2020 21:00:00 27,5 22,4 2 1 SW 1011,0 -
03.07.2020 20:00:00 28,5 22,9 5 3 SSW 1010,4 0,0
03.07.2020 19:00:00 28,8 21,8 5 3 S 1010,0 -
03.07.2020 18:00:00 29,3 21,2 8 4 S 1010,0 -
03.07.2020 17:00:00 29,1 20,5 9 5 S 1010,0 -
03.07.2020 16:00:00 30,1 20,3 9 5 SSW 1010,3 -
03.07.2020 15:00:00 29,7 19,4 11 6 S 1010,7 -
03.07.2020 14:00:00 31,7 20,6 8 4 SSW 1010,9 0,0
03.07.2020 13:00:00 30,5 20,7 9 5 SSW 1011,0 -
03.07.2020 12:00:00 29,6 22,0 15 8 SW 1010,9 -
03.07.2020 11:00:00 28,5 21,2 18 10 WNW 1010,7 -
03.07.2020 10:00:00 28,1 20,1 18 10 WNW 1010,6 -
03.07.2020 09:00:00 27,7 19,2 11 6 W 1010,5 -
03.07.2020 08:00:00 26,9 19,7 5 3 WNW 1010,2 0,0
03.07.2020 07:00:00 25,1 20,1 8 4 WNW 1009,7 -
03.07.2020 06:00:00 24,6 18,9 4 2 SW 1009,3 -
03.07.2020 05:00:00 25,8 20,1 8 4 WSW 1009,2 -
03.07.2020 04:00:00 26,1 19,9 9 5 SW 1009,3 -
03.07.2020 03:00:00 26,0 20,0 9 5 SW 1009,4 -
03.07.2020 02:00:00 26,8 19,4 8 4 WSW 1009,7 0,0
03.07.2020 01:00:00 26,5 18,0 5 3 SW 1009,9 -
03.07.2020 00:00:00 26,9 20,0 9 5 SW 1010,1 -
02.07.2020 23:00:00 26,9 20,2 9 5 SSW 1009,9 -
02.07.2020 22:00:00 26,4 22,8 9 5 W 1009,8 -
02.07.2020 21:00:00 26,8 22,8 15 8 WNW 1009,2 -
02.07.2020 20:00:00 27,7 22,1 15 8 WNW 1008,9 0,0
02.07.2020 19:00:00 29,5 22,2 5 3 WNW 1008,4 -
02.07.2020 18:00:00 30,6 22,7 9 5 W 1008,4 -
02.07.2020 17:00:00 31,7 23,5 8 4 W 1009,1 -
02.07.2020 16:00:00 31,1 22,7 9 5 WSW 1009,9 -
02.07.2020 15:00:00 31,6 19,6 15 8 WSW 1010,5 -
02.07.2020 14:00:00 31,8 20,1 13 7 SSW 1010,8 0,0
02.07.2020 13:00:00 30,7 20,6 11 6 SSW 1011,2 -
02.07.2020 12:00:00 30,7 20,0 9 5 W 1011,5 -
02.07.2020 11:00:00 28,9 20,3 5 3 W 1011,4 -
02.07.2020 10:00:00 29,6 20,7 4 2 W 1011,3 -
02.07.2020 09:00:00 26,4 18,5 2 1 SSW 1011,5 -
02.07.2020 08:00:00 25,4 15,5 0 0 N 1011,4 0,0
02.07.2020 07:00:00 22,5 14,8 0 0 N 1011,2 -
02.07.2020 06:00:00 21,7 13,8 4 2 SSW 1011,0 -
02.07.2020 05:00:00 22,4 13,9 2 1 SSW 1010,8 -
02.07.2020 04:00:00 23,0 14,7 0 0 N 1011,2 -
02.07.2020 03:00:00 23,8 15,5 4 2 SW 1011,4 -
02.07.2020 02:00:00 24,0 15,1 4 2 SSW 1012,0 0,0
02.07.2020 01:00:00 26,3 17,9 2 1 WSW 1012,1 -
02.07.2020 00:00:00 25,9 16,9 0 0 N 1012,3 -
01.07.2020 23:00:00 27,5 18,7 4 2 SSW 1012,2 -
01.07.2020 22:00:00 28,9 19,8 4 2 SW 1012,0 -
01.07.2020 21:00:00 28,9 21,4 5 3 SW 1011,7 -
01.07.2020 20:00:00 28,2 22,4 5 3 WSW 1011,8 0,0
01.07.2020 19:00:00 29,5 21,1 13 7 SSW 1011,8 -
01.07.2020 18:00:00 30,1 22,8 15 8 SSW 1011,8 -
01.07.2020 17:00:00 30,4 21,2 15 8 SSW 1012,1 -
01.07.2020 16:00:00 30,1 18,8 15 8 SSW 1012,4 -
01.07.2020 15:00:00 30,2 18,3 9 5 SW 1012,6 -
01.07.2020 14:00:00 29,2 17,7 9 5 W 1012,6 0,0
01.07.2020 13:00:00 29,3 19,0 9 5 W 1013,1 -
01.07.2020 12:00:00 28,8 18,8 11 6 W 1013,1 -
01.07.2020 11:00:00 28,3 17,1 11 6 W 1013,1 -
01.07.2020 10:00:00 28,5 15,0 8 4 W 1013,2 -
01.07.2020 09:00:00 26,9 18,4 5 3 WNW 1013,1 -
01.07.2020 08:00:00 25,0 17,1 0 0 N 1013,0 0,0
01.07.2020 07:00:00 22,1 14,6 0 0 N 1012,7 -
01.07.2020 06:00:00 21,1 12,9 2 1 SSW 1012,4 -
01.07.2020 05:00:00 21,6 12,7 0 0 N 1012,2 -
01.07.2020 04:00:00 22,5 14,0 0 0 N 1012,0 -
01.07.2020 03:00:00 23,2 13,3 4 2 SSW 1012,4 -
01.07.2020 02:00:00 25,6 16,7 4 2 SW 1012,8 0,0
01.07.2020 01:00:00 26,4 15,7 15 8 W 1013,1 -
01.07.2020 00:00:00 26,1 16,8 5 3 SW 1013,4 -
30.06.2020 23:00:00 26,2 19,3 2 1 SW 1013,4 -
30.06.2020 22:00:00 25,9 22,5 4 2 SW 1013,2 -
30.06.2020 21:00:00 26,9 22,0 4 2 SSW 1012,7 -
30.06.2020 20:00:00 27,5 22,6 4 2 SW 1012,6 0,0
30.06.2020 19:00:00 27,9 22,8 9 5 SSW 1012,5 -
30.06.2020 18:00:00 28,4 22,3 13 7 SSW 1012,4 -
30.06.2020 17:00:00 28,9 21,1 11 6 SSW 1012,8 -
30.06.2020 16:00:00 29,1 20,5 9 5 W 1013,2 -
30.06.2020 15:00:00 29,5 19,5 9 5 WSW 1013,5 -
30.06.2020 14:00:00 29,2 19,2 9 5 WSW 1013,7 0,0
30.06.2020 13:00:00 29,1 17,3 9 5 WNW 1013,9 -
30.06.2020 12:00:00 28,7 18,4 9 5 W 1013,8 -
30.06.2020 11:00:00 29,6 16,7 8 4 WNW 1013,7 -
30.06.2020 10:00:00 28,8 17,0 5 3 W 1013,7 -
30.06.2020 09:00:00 27,6 17,4 5 3 WNW 1013,4 -
30.06.2020 08:00:00 24,4 18,3 2 1 SW 1013,3 0,0
30.06.2020 07:00:00 21,0 14,6 4 2 SSW 1013,2 -
30.06.2020 06:00:00 20,6 13,5 4 2 SSW 1012,8 -

tt = temperature
td = dewpoint
ff = wind speed
dd = wind direction
ppp = reduced air pressure
rr = precipitation

Next stations